Time;durP1;ratioP1;P1;durP2;ratioP2;P2;SDS_P1;SDS_P2;PMS_P1;PMS_P2;Temp;Humidity;BMP_temperature;BMP_pressure;BME280_temperature;BME280_humidity;BME280_pressure;Samples;Min_cycle;Max_cycle;Signal;HPM_P1;HPM_P2
2022/12/15 00:40:10;;;;;;;26.70;11.30;;;;;;;-1.67;100.00;100604.91;5061560;28;20042;-40
2022/12/15 00:42:35;;;;;;;22.17;9.20;;;;;;;-1.66;100.00;100604.81;5049421;28;20411;-40
2022/12/15 00:45:01;;;;;;;18.05;9.27;;;;;;;-1.68;100.00;100605.88;5051111;28;20028;-39
2022/12/15 00:47:26;;;;;;;18.50;9.60;;;;;;;-1.68;100.00;100619.91;5057470;28;20227;-40
2022/12/15 01:20:19;;;;;;;20.42;9.70;;;;;;;-1.31;100.00;100611.97;5054449;28;20422;-40
2022/12/15 01:22:52;;;;;;;21.25;9.57;;;;;;;-1.34;100.00;100601.66;5051740;28;20033;-40
2022/12/15 01:25:19;;;;;;;18.20;8.70;;;;;;;-1.38;100.00;100605.44;5051286;28;20040;-39
2022/12/15 01:27:44;;;;;;;19.73;8.98;;;;;;;-1.44;100.00;100611.19;5057852;28;20827;-40
2022/12/15 01:30:13;;;;;;;16.52;8.73;;;;;;;-1.49;100.00;100618.59;5059853;28;20132;-40
2022/12/15 01:32:38;;;;;;;17.23;9.02;;;;;;;-1.54;100.00;100621.53;5058764;28;20166;-40
2022/12/15 01:35:04;;;;;;;19.40;9.00;;;;;;;-1.59;100.00;100624.50;5053225;28;20107;-40
2022/12/15 01:37:29;;;;;;;15.88;9.20;;;;;;;-1.64;100.00;100626.63;5062203;28;20472;-39
2022/12/15 01:42:39;;;;;;;17.25;8.60;;;;;;;-1.74;100.00;100640.56;5050979;28;20105;-40
2022/12/15 01:45:22;;;;;;;17.35;9.15;;;;;;;-1.82;100.00;100634.06;5063452;28;20476;-40
2022/12/15 01:47:49;;;;;;;17.20;9.00;;;;;;;-1.88;100.00;100633.63;5059751;28;20066;-40
2022/12/15 01:50:14;;;;;;;17.50;9.27;;;;;;;-1.91;100.00;100634.69;5063516;28;20029;-40
2022/12/15 01:52:40;;;;;;;19.63;8.68;;;;;;;-1.94;100.00;100645.47;5061582;28;20040;-40
2022/12/15 01:55:05;;;;;;;16.80;9.27;;;;;;;-1.95;100.00;100649.03;5051882;28;20043;-40
2022/12/15 01:57:31;;;;;;;20.95;8.95;;;;;;;-1.92;100.00;100646.19;5061341;28;20082;-42
2022/12/15 01:59:59;;;;;;;18.33;9.63;;;;;;;-1.89;100.00;100661.81;5061223;28;20028;-38
2022/12/15 02:02:26;;;;;;;21.75;10.10;;;;;;;-1.84;100.00;100666.78;5068812;28;20521;-39
2022/12/15 02:04:53;;;;;;;19.80;8.80;;;;;;;-1.83;100.00;100657.91;5058473;28;20025;-39
2022/12/15 02:07:18;;;;;;;22.35;9.65;;;;;;;-1.91;100.00;100655.78;5054286;28;20028;-40
2022/12/15 02:09:46;;;;;;;22.75;10.02;;;;;;;-1.94;100.00;100657.81;5065565;28;20479;-39
2022/12/15 02:12:14;;;;;;;17.52;9.57;;;;;;;-1.92;100.00;100666.44;5065583;28;20494;-39
2022/12/15 02:14:39;;;;;;;;;;;;;;;-1.93;100.00;100667.41;5053689;28;20117;-40
2022/12/15 02:17:16;;;;;;;18.05;8.90;;;;;;;-1.98;100.00;100670.34;5050104;28;19954;-39
2022/12/15 02:20:00;;;;;;;18.63;9.02;;;;;;;-1.95;100.00;100669.28;5055117;28;20033;-40
2022/12/15 02:22:40;;;;;;;17.50;9.20;;;;;;;-1.99;100.00;100658.13;5048740;28;20472;-40
2022/12/15 02:25:24;;;;;;;20.70;9.43;;;;;;;-2.04;100.00;100655.78;5065626;28;20399;-39
2022/12/15 02:27:58;;;;;;;23.25;10.38;;;;;;;-2.04;100.00;100655.78;5060472;28;20048;-39
2022/12/15 02:33:58;;;;;;;17.80;10.13;;;;;;;-2.08;100.00;100653.47;5057675;28;20037;-39
2022/12/15 02:36:38;;;;;;;21.90;10.82;;;;;;;-2.10;100.00;100656.22;5068603;28;20446;-40
2022/12/15 02:39:04;;;;;;;20.95;10.68;;;;;;;-2.11;100.00;100665.06;5069152;28;20070;-40
2022/12/15 02:41:34;;;;;;;21.15;9.60;;;;;;;-2.17;100.00;100662.00;5069807;28;20036;-39
2022/12/15 02:44:01;;;;;;;23.85;10.00;;;;;;;-2.30;100.00;100665.47;5051040;28;20433;-40
2022/12/15 02:47:05;;;;;;;20.02;10.23;;;;;;;-2.36;100.00;100662.44;5065313;28;20051;-40
2022/12/15 02:49:48;;;;;;;24.42;11.75;;;;;;;-2.39;100.00;100660.84;5054929;28;20747;-40
2022/12/15 02:52:51;;;;;;;26.55;10.40;;;;;;;-2.38;100.00;100666.94;5050730;28;20416;-40
2022/12/15 02:55:31;;;;;;;18.80;10.38;;;;;;;-2.41;100.00;100667.16;5052854;28;20090;-39
2022/12/15 02:58:26;;;;;;;31.17;11.68;;;;;;;-2.41;100.00;100677.69;5048501;28;20478;-40
2022/12/15 03:01:01;;;;;;;20.50;11.30;;;;;;;-2.39;100.00;100676.66;5048240;28;20039;-40
2022/12/15 03:03:27;;;;;;;21.45;10.15;;;;;;;-2.43;100.00;100680.44;5062844;28;20032;-40
2022/12/15 03:05:53;;;;;;;23.63;12.18;;;;;;;-2.49;100.00;100676.41;5068449;28;20036;-40
2022/12/15 03:08:19;;;;;;;24.10;11.43;;;;;;;-2.50;100.00;100674.75;5072400;28;20029;-40
2022/12/15 03:10:45;;;;;;;26.52;12.00;;;;;;;-2.49;100.00;100676.41;5053466;28;20364;-40
2022/12/15 03:13:10;;;;;;;22.45;11.63;;;;;;;-2.50;100.00;100673.88;5053134;28;20017;-40
2022/12/15 03:15:36;;;;;;;23.38;11.57;;;;;;;-2.53;100.00;100674.06;5063784;28;20576;-41
2022/12/15 03:18:01;;;;;;;22.38;12.00;;;;;;;-2.50;100.00;100674.75;5073148;28;20328;-40
2022/12/15 03:20:26;;;;;;;25.38;12.07;;;;;;;-2.50;100.00;100664.19;5054068;28;20040;-41
2022/12/15 03:22:52;;;;;;;29.88;13.82;;;;;;;-2.49;100.00;100671.13;5067987;28;20025;-40
2022/12/15 03:25:18;;;;;;;25.33;13.13;;;;;;;-2.49;100.00;100671.13;5064897;28;20083;-41
2022/12/15 03:27:44;;;;;;;25.00;12.90;;;;;;;-2.51;100.00;100683.56;5052158;28;20439;-41
2022/12/15 03:30:10;;;;;;;25.42;13.00;;;;;;;-2.54;100.00;100683.78;5057368;28;20261;-40
2022/12/15 03:32:36;;;;;;;26.80;12.95;;;;;;;-2.63;100.00;100679.13;5063800;28;20033;-41
2022/12/15 03:35:02;;;;;;;26.15;13.23;;;;;;;-2.67;100.00;100682.91;5057949;28;20422;-40
2022/12/15 03:37:28;;;;;;;25.25;12.98;;;;;;;-2.63;100.00;100679.13;5054537;28;20021;-40
2022/12/15 03:39:53;;;;;;;29.88;14.25;;;;;;;-2.62;100.00;100679.97;5053124;28;20049;-40
2022/12/15 03:42:47;;;;;;;32.45;13.77;;;;;;;-2.64;100.00;100677.41;5062076;28;20033;-40
2022/12/15 03:45:04;;;;;;;35.33;13.60;;;;;;;-2.62;100.00;100686.06;5057818;28;20044;-39
2022/12/15 03:47:30;;;;;;;24.20;12.65;;;;;;;-2.59;100.00;100680.59;5072637;28;20534;-40
2022/12/15 03:49:56;;;;;;;27.00;13.90;;;;;;;-2.57;100.00;100677.88;5072634;28;20033;-41
2022/12/15 03:52:22;;;;;;;25.02;13.38;;;;;;;-2.60;100.00;100680.72;5070317;28;20059;-39
2022/12/15 03:54:48;;;;;;;29.42;12.68;;;;;;;-2.63;100.00;100684.41;5055355;28;20390;-40
2022/12/15 03:57:13;;;;;;;29.15;14.63;;;;;;;-2.66;100.00;100679.31;5071870;28;20032;-37
2022/12/15 03:59:38;;;;;;;40.58;14.13;;;;;;;-2.68;100.00;100683.84;5072361;28;20036;-40
2022/12/15 04:02:03;;;;;;;25.65;14.38;;;;;;;-2.68;100.00;100686.50;5069601;28;20090;-39
2022/12/15 04:04:29;;;;;;;31.05;15.00;;;;;;;-2.67;100.00;100686.38;5072446;28;20083;-40
2022/12/15 04:06:54;;;;;;;31.42;15.18;;;;;;;-2.63;100.00;100689.66;5070990;28;20056;-38
2022/12/15 04:09:19;;;;;;;34.15;15.07;;;;;;;-2.59;100.00;100680.59;5052724;28;20028;-40
2022/12/15 04:11:45;;;;;;;33.63;14.75;;;;;;;-2.52;100.00;100689.78;5072054;28;20046;-40
2022/12/15 04:14:10;;;;;;;39.17;15.45;;;;;;;-2.52;100.00;100687.16;5052218;28;20021;-38
2022/12/15 04:16:36;;;;;;;34.47;14.93;;;;;;;-2.49;100.00;100689.59;5070065;28;20028;-40
2022/12/15 04:21:45;;;;;;;34.95;15.57;;;;;;;-2.49;100.00;100671.13;5071530;28;20038;-40
2022/12/15 05:32:33;;;;;;;36.05;13.85;;;;;;;-2.85;100.00;100710.44;5070844;28;20047;-40
2022/12/15 05:35:00;;;;;;;29.73;13.77;;;;;;;-2.83;100.00;100709.41;5068338;28;20033;-40
2022/12/15 05:37:25;;;;;;;29.52;14.48;;;;;;;-2.84;100.00;100712.13;5050759;28;20454;-40
2022/12/15 05:39:50;;;;;;;36.38;13.80;;;;;;;-2.80;100.00;100708.34;5066357;28;20103;-40
2022/12/15 05:42:16;;;;;;;30.27;14.25;;;;;;;-2.80;100.00;100708.34;5070558;28;20029;-40
2022/12/15 05:44:42;;;;;;;34.47;15.55;;;;;;;-2.79;100.00;100710.91;5067485;28;20057;-40
2022/12/15 05:47:08;;;;;;;41.00;15.18;;;;;;;-2.76;100.00;100709.84;5048696;28;20021;-40
2022/12/15 05:49:34;;;;;;;34.72;14.35;;;;;;;-2.77;100.00;100718.69;5048553;28;20031;-39
2022/12/15 05:52:00;;;;;;;26.15;12.70;;;;;;;-2.76;100.00;100730.94;5055340;28;20048;-37
2022/12/15 05:54:25;;;;;;;31.60;13.65;;;;;;;-2.72;100.00;100730.59;5056522;28;20059;-40
2022/12/15 05:56:51;;;;;;;27.60;14.05;;;;;;;-2.68;100.00;100728.63;5049930;28;20036;-40
2022/12/15 05:59:17;;;;;;;32.85;12.45;;;;;;;-2.69;100.00;100729.56;5045564;28;20037;-40
2022/12/15 06:01:43;;;;;;;30.65;13.25;;;;;;;-2.73;100.00;100733.34;5057247;28;20103;-41
2022/12/15 06:04:10;;;;;;;29.13;11.88;;;;;;;-2.71;100.00;100728.84;5048198;28;20195;-41
2022/12/15 06:06:35;;;;;;;24.67;12.17;;;;;;;-2.70;100.00;100730.53;5063354;28;20024;-38
2022/12/15 06:09:02;;;;;;;30.95;12.90;;;;;;;-2.67;100.00;100732.94;5060889;28;20032;-39
2022/12/15 06:11:27;;;;;;;23.42;12.02;;;;;;;-2.68;100.00;100739.19;5066229;28;20036;-39
2022/12/15 06:13:54;;;;;;;28.63;13.02;;;;;;;-2.66;100.00;100742.53;5068975;28;20029;-40
2022/12/15 06:16:22;;;;;;;19.25;10.10;;;;;;;-2.65;100.00;100739.81;5067660;28;20471;-39
2022/12/15 06:18:52;;;;;;;21.95;11.90;;;;;;;-2.60;100.00;100746.59;5060760;28;20025;-40
2022/12/15 06:21:20;;;;;;;25.70;11.75;;;;;;;-2.58;100.00;100750.81;5050017;28;20167;-40
2022/12/15 06:23:46;;;;;;;21.63;11.88;;;;;;;-2.55;100.00;100750.59;5050100;28;20025;-39
2022/12/15 06:26:20;;;;;;;25.80;12.15;;;;;;;-2.48;100.00;100756.31;5050703;28;20360;-38
2022/12/15 06:28:47;;;;;;;20.58;10.27;;;;;;;-2.39;100.00;100739.91;5049908;28;20052;-40
2022/12/15 06:31:13;;;;;;;32.83;12.18;;;;;;;-2.30;100.00;100743.72;5049863;28;20091;-39
2022/12/15 06:33:39;;;;;;;22.63;12.30;;;;;;;-2.26;100.00;100740.78;5049714;28;20048;-40
2022/12/15 06:36:09;;;;;;;29.63;12.05;;;;;;;-2.23;100.00;100745.84;5049180;28;20017;-40
2022/12/15 06:38:35;;;;;;;24.27;12.07;;;;;;;-2.17;100.00;100744.59;5066178;28;20119;-39
2022/12/15 06:41:03;;;;;;;22.33;11.10;;;;;;;-2.12;100.00;100754.84;5071766;28;20128;-40
2022/12/15 06:43:28;;;;;;;33.00;11.20;;;;;;;-2.08;100.00;100758.94;5072292;28;20048;-40
2022/12/15 06:45:54;;;;;;;21.52;10.50;;;;;;;-2.06;100.00;100755.25;5074239;28;20738;-39
2022/12/15 06:48:20;;;;;;;28.63;11.40;;;;;;;-2.10;100.00;100748.50;5067687;28;20043;-41
2022/12/15 06:50:46;;;;;;;27.75;10.25;;;;;;;-2.14;100.00;100746.16;5071172;28;20123;-41
2022/12/15 06:53:12;;;;;;;21.40;10.13;;;;;;;-2.20;100.00;100752.69;5051606;28;20556;-40
2022/12/15 06:55:38;;;;;;;25.10;10.35;;;;;;;-2.22;100.00;100752.78;5051497;28;20037;-42
2022/12/15 06:58:03;;;;;;;18.90;9.88;;;;;;;-2.25;100.00;100752.16;5052251;28;20025;-40
2022/12/15 07:00:29;;;;;;;20.30;10.05;;;;;;;-2.26;100.00;100750.50;5071677;28;20157;-41
2022/12/15 07:02:54;;;;;;;18.27;8.95;;;;;;;-2.28;100.00;100752.38;5071406;28;20032;-42
2022/12/15 07:05:20;;;;;;;20.20;10.40;;;;;;;-2.30;100.00;100757.72;5054084;28;20025;-40
2022/12/15 07:07:46;;;;;;;16.15;9.10;;;;;;;-2.28;100.00;100757.66;5069086;28;20042;-39
2022/12/15 07:10:11;;;;;;;20.27;10.80;;;;;;;-2.26;100.00;100750.50;5071602;28;20443;-39
2022/12/15 07:12:36;;;;;;;19.10;10.45;;;;;;;-2.26;100.00;100750.50;5061611;28;20173;-40
2022/12/15 07:15:02;;;;;;;23.50;10.35;;;;;;;-2.23;100.00;100755.56;5054152;28;20055;-39
2022/12/15 07:17:27;;;;;;;21.80;9.88;;;;;;;-2.26;100.00;100756.59;5064529;28;20063;-42
2022/12/15 07:19:53;;;;;;;29.30;11.88;;;;;;;-2.27;100.00;100754.88;5063853;28;20021;-42
2022/12/15 07:22:20;;;;;;;19.38;10.85;;;;;;;-2.33;100.00;100757.09;5054117;28;20063;-41
2022/12/15 07:24:46;;;;;;;22.77;11.23;;;;;;;-2.36;100.00;100760.78;5052441;28;20476;-40
2022/12/15 07:27:11;;;;;;;24.30;11.40;;;;;;;-2.38;100.00;100759.19;5052870;28;20098;-41
2022/12/15 07:29:36;;;;;;;23.88;10.93;;;;;;;-2.36;100.00;100760.78;5053526;28;20055;-41
2022/12/15 07:32:02;;;;;;;20.58;10.20;;;;;;;-2.30;100.00;100764.81;5052895;28;20095;-41
2022/12/15 07:34:27;;;;;;;21.55;9.60;;;;;;;-2.17;100.00;100767.47;5052942;28;20021;-41
2022/12/15 07:36:53;;;;;;;21.88;9.90;;;;;;;-2.01;100.00;100776.88;5052704;28;20025;-42
2022/12/15 07:39:18;;;;;;;21.83;9.73;;;;;;;-1.86;100.00;100779.47;5052868;28;20032;-39
2022/12/15 07:41:43;;;;;;;22.80;9.90;;;;;;;-1.71;100.00;100786.34;5053355;28;20025;-40
2022/12/15 07:44:09;;;;;;;23.88;9.10;;;;;;;-1.53;100.00;100781.56;5051682;28;20461;-42
2022/12/15 07:46:34;;;;;;;22.90;9.93;;;;;;;-1.45;100.00;100789.84;5052937;28;20438;-39
2022/12/15 07:48:59;;;;;;;24.50;8.63;;;;;;;-1.41;100.00;100782.53;5052468;28;20054;-40
2022/12/15 07:51:26;;;;;;;21.45;8.85;;;;;;;-1.37;100.00;100776.06;5053148;28;20025;-40
2022/12/15 07:53:51;;;;;;;20.92;9.15;;;;;;;-1.36;100.00;100783.91;5052023;28;20082;-40
2022/12/15 07:56:18;;;;;;;23.60;9.48;;;;;;;-1.35;100.00;100785.56;5051199;28;20115;-42
2022/12/15 07:58:44;;;;;;;25.30;8.57;;;;;;;-1.32;100.00;100789.78;5050999;28;20041;-40
2022/12/15 08:01:11;;;;;;;22.35;9.02;;;;;;;-1.28;100.00;100786.00;5052541;28;20052;-41
2022/12/15 08:03:37;;;;;;;15.27;8.35;;;;;;;-1.28;100.00;100791.28;5052371;28;20429;-38
2022/12/15 08:06:07;;;;;;;21.40;8.48;;;;;;;-1.31;100.00;100780.09;5052482;28;20108;-41
2022/12/15 08:08:33;;;;;;;20.98;8.60;;;;;;;-1.28;100.00;100782.53;5051977;28;20442;-41
2022/12/15 08:10:58;;;;;;;17.75;8.48;;;;;;;-1.26;100.00;100784.13;5052769;28;20082;-41
2022/12/15 08:13:24;;;;;;;21.52;8.57;;;;;;;-1.27;100.00;100787.69;5051997;28;20025;-40
2022/12/15 08:15:53;;;;;;;20.27;7.60;;;;;;;-1.31;100.00;100782.75;5050615;28;20028;-41
2022/12/15 08:18:19;;;;;;;16.35;7.80;;;;;;;-1.38;100.00;100790.22;5052282;28;20029;-40
2022/12/15 08:20:44;;;;;;;21.05;8.88;;;;;;;-1.41;100.00;100793.09;5051954;28;20145;-40
2022/12/15 08:23:10;;;;;;;14.23;7.70;;;;;;;-1.36;100.00;100793.63;5055436;28;20096;-40
2022/12/15 08:25:35;;;;;;;16.40;8.23;;;;;;;-1.36;100.00;100794.47;5064223;28;20024;-42
2022/12/15 08:28:00;;;;;;;20.10;8.20;;;;;;;-1.31;100.00;100790.66;5059015;28;20503;-40
2022/12/15 08:30:26;;;;;;;16.42;7.60;;;;;;;-1.30;100.00;100803.75;5050773;28;20029;-39
2022/12/15 08:32:51;;;;;;;18.02;9.38;;;;;;;-1.07;100.00;100803.94;5050268;28;20527;-41
2022/12/15 08:35:17;;;;;;;23.08;11.13;;;;;;;-0.58;100.00;100803.94;5053288;28;20036;-41
2022/12/15 08:37:42;;;;;;;22.67;9.15;;;;;;;0.04;100.00;100812.63;5058145;28;20024;-40
2022/12/15 08:40:08;;;;;;;17.77;9.02;;;;;;;0.75;100.00;100816.03;5052857;28;20032;-39
2022/12/15 08:42:34;;;;;;;19.58;8.55;;;;;;;1.43;100.00;100820.34;5051318;28;20025;-40
2022/12/15 08:44:59;;;;;;;14.30;8.50;;;;;;;1.89;100.00;100821.88;5051094;28;20017;-40
2022/12/15 08:47:25;;;;;;;16.85;7.57;;;;;;;2.27;100.00;100823.19;5052158;28;20765;-41
2022/12/15 08:49:51;;;;;;;15.98;7.55;;;;;;;2.51;100.00;100816.78;5051908;28;20037;-41
2022/12/15 08:52:17;;;;;;;13.30;6.50;;;;;;;2.76;100.00;100811.03;5062458;28;20025;-41
2022/12/15 08:54:42;;;;;;;17.30;6.88;;;;;;;2.87;100.00;100799.50;5069978;28;20036;-40
2022/12/15 08:57:07;;;;;;;20.70;7.28;;;;;;;2.96;100.00;100796.03;5070354;28;20033;-41
2022/12/15 08:59:33;;;;;;;13.98;7.00;;;;;;;3.13;100.00;100791.88;5060708;28;20124;-40
2022/12/15 09:01:59;;;;;;;13.57;6.72;;;;;;;3.32;100.00;100792.91;5053986;28;20040;-41
2022/12/15 09:04:24;;;;;;;14.77;6.72;;;;;;;3.21;100.00;100783.22;5050674;28;20017;-41
2022/12/15 09:06:50;;;;;;;12.07;6.28;;;;;;;3.11;100.00;100788.53;5063545;28;20537;-42
2022/12/15 09:09:15;;;;;;;12.63;5.88;;;;;;;2.92;100.00;100786.63;5051273;28;20116;-40
2022/12/15 09:11:40;;;;;;;16.70;5.78;;;;;;;2.78;100.00;100794.97;5051209;28;20033;-40
2022/12/15 09:14:06;;;;;;;16.30;6.57;;;;;;;2.74;100.00;100797.06;5050682;28;20078;-38
2022/12/15 09:16:32;;;;;;;19.23;7.35;;;;;;;2.79;100.00;100799.28;5049292;28;20107;-41
2022/12/15 09:18:58;;;;;;;9.82;5.32;;;;;;;2.89;100.00;100802.00;5062984;28;20059;-40
2022/12/15 09:21:26;;;;;;;16.65;5.93;;;;;;;3.24;100.00;100804.25;5049160;28;20021;-40
2022/12/15 09:23:53;;;;;;;15.77;6.00;;;;;;;3.82;100.00;100803.50;5050540;28;20041;-40
2022/12/15 09:26:21;;;;;;;13.15;5.50;;;;;;;4.23;100.00;100806.88;5054741;28;20044;-41
2022/12/15 09:28:46;;;;;;;13.52;5.00;;;;;;;4.83;100.00;100805.59;5063078;28;20052;-40
2022/12/15 09:31:20;;;;;;;12.60;5.50;;;;;;;5.31;100.00;100802.88;5050444;28;20055;-39
2022/12/15 09:33:46;;;;;;;14.13;4.53;;;;;;;5.86;100.00;100810.81;5055743;28;20075;-38
2022/12/15 09:36:12;;;;;;;12.10;5.10;;;;;;;6.33;100.00;100813.28;5049907;28;20413;-39
2022/12/15 09:38:39;;;;;;;16.23;6.25;;;;;;;6.73;100.00;100812.72;5061553;28;20044;-39
2022/12/15 09:41:13;;;;;;;23.55;7.10;;;;;;;6.82;100.00;100817.13;5049323;28;20384;-39
2022/12/15 09:43:54;;;;;;;16.80;6.75;;;;;;;6.65;99.63;100810.00;5052351;28;20033;-39
2022/12/15 09:46:58;;;;;;;10.38;7.07;;;;;;;6.29;100.00;100815.44;5067381;28;20456;-39
2022/12/15 09:49:29;;;;;;;17.38;5.78;;;;;;;6.02;100.00;100818.19;5069021;28;20129;-38
2022/12/15 09:52:00;;;;;;;13.52;6.20;;;;;;;5.31;100.00;100814.38;5054324;28;20040;-38
2022/12/15 09:54:30;;;;;;;13.35;5.97;;;;;;;4.73;100.00;100809.28;5054231;28;20059;-38
2022/12/15 09:56:57;;;;;;;13.70;5.13;;;;;;;4.23;100.00;100814.84;5068745;28;20115;-40
2022/12/15 09:59:30;;;;;;;15.93;4.20;;;;;;;3.74;100.00;100813.03;5067750;28;20658;-39
2022/12/15 10:02:17;;;;;;;21.13;6.10;;;;;;;3.44;100.00;100815.78;5069907;28;20037;-37
2022/12/15 10:04:46;;;;;;;14.50;5.20;;;;;;;3.47;100.00;100819.00;5054085;28;20036;-36
2022/12/15 10:07:20;;;;;;;17.83;5.65;;;;;;;3.58;100.00;100828.72;5052063;28;20041;-40
2022/12/15 10:09:45;;;;;;;8.85;4.60;;;;;;;3.59;100.00;100830.38;5047930;28;20071;-37
2022/12/15 10:12:25;;;;;;;11.85;4.88;;;;;;;3.77;100.00;100835.03;5059740;28;20033;-37
2022/12/15 10:15:22;;;;;;;16.55;5.35;;;;;;;4.07;100.00;100845.56;5064198;28;20063;-36
2022/12/15 10:17:51;;;;;;;14.65;4.38;;;;;;;4.32;100.00;100843.34;5066125;28;20821;-40
2022/12/15 10:20:23;;;;;;;9.70;4.20;;;;;;;4.45;100.00;100846.53;5067275;28;21161;-38
2022/12/15 10:22:48;;;;;;;12.98;4.20;;;;;;;4.68;100.00;100848.88;5058838;28;20090;-37
2022/12/15 10:25:18;;;;;;;8.65;4.20;;;;;;;4.49;100.00;100834.59;5048370;28;20032;-39
2022/12/15 10:28:11;;;;;;;25.83;4.88;;;;;;;4.31;100.00;100841.63;5049074;28;20049;-37
2022/12/15 10:31:01;;;;;;;15.18;4.63;;;;;;;4.06;100.00;100841.22;5049955;28;20111;-37
2022/12/15 10:33:31;;;;;;;15.25;5.00;;;;;;;3.70;100.00;100843.56;5050258;28;20057;-39
2022/12/15 10:35:56;;;;;;;15.25;5.47;;;;;;;3.72;100.00;100846.94;5048120;28;20524;-39
2022/12/15 10:38:29;;;;;;;17.73;5.32;;;;;;;3.92;100.00;100842.50;5049661;28;20040;-39
2022/12/15 10:41:00;;;;;;;21.58;5.82;;;;;;;4.17;100.00;100846.41;5049703;28;20029;-39
2022/12/15 10:43:33;;;;;;;11.32;4.90;;;;;;;4.39;100.00;100839.09;5049812;28;20025;-39
2022/12/15 10:46:03;;;;;;;20.83;5.20;;;;;;;4.67;100.00;100842.72;5052936;28;20040;-37
2022/12/15 10:48:28;;;;;;;15.52;4.70;;;;;;;4.88;100.00;100839.84;5049331;28;20067;-40
2022/12/15 10:51:13;;;;;;;16.13;5.38;;;;;;;4.81;100.00;100842.25;5047982;28;20064;-40
2022/12/15 10:54:08;;;;;;;10.88;5.20;;;;;;;4.51;100.00;100835.31;5049776;28;20041;-38
2022/12/15 10:56:35;;;;;;;15.75;5.30;;;;;;;4.26;100.00;100839.38;5061937;28;20049;-39
2022/12/15 10:59:30;;;;;;;15.27;5.25;;;;;;;4.32;100.00;100846.00;5065761;28;20028;-39
2022/12/15 11:02:24;;;;;;;13.80;5.10;;;;;;;4.72;100.00;100844.94;5055554;28;20086;-38
2022/12/15 11:05:01;;;;;;;11.23;5.05;;;;;;;4.90;100.00;100845.03;5053795;28;20036;-39
2022/12/15 11:07:38;;;;;;;14.85;5.20;;;;;;;4.68;100.00;100840.88;5061337;28;20033;-40
2022/12/15 11:10:20;;;;;;;16.20;4.73;;;;;;;4.57;100.00;100845.38;5058250;28;20147;-39
2022/12/15 11:13:19;;;;;;;19.15;4.97;;;;;;;4.31;100.00;100831.81;5059526;28;20079;-39
2022/12/15 11:15:45;;;;;;;11.77;4.72;;;;;;;4.09;100.00;100848.94;5067403;28;20395;-38
2022/12/15 11:18:42;;;;;;;18.35;5.00;;;;;;;3.80;100.00;100845.41;5067277;28;20029;-38
2022/12/15 11:21:15;;;;;;;14.35;5.00;;;;;;;3.77;100.00;100848.34;5051144;28;20041;-39
2022/12/15 11:24:05;;;;;;;15.27;5.00;;;;;;;3.93;100.00;100853.97;5053547;28;20037;-41
2022/12/15 11:26:39;;;;;;;15.35;5.40;;;;;;;3.94;100.00;100842.31;5049140;28;20056;-40
2022/12/15 11:29:26;;;;;;;12.02;4.78;;;;;;;3.78;100.00;100840.22;5054692;28;20041;-37
2022/12/15 11:31:53;;;;;;;14.52;5.05;;;;;;;3.65;100.00;100835.13;5068047;28;20045;-39
2022/12/15 11:34:22;;;;;;;13.70;5.40;;;;;;;3.50;100.00;100839.16;5061498;28;20127;-40
2022/12/15 11:37:12;;;;;;;20.45;5.10;;;;;;;3.49;100.00;100830.34;5054184;28;20443;-39
2022/12/15 11:39:55;;;;;;;11.60;4.85;;;;;;;3.66;100.00;100836.84;5058840;28;20041;-39
2022/12/15 11:42:23;;;;;;;9.52;4.28;;;;;;;3.79;100.00;100836.59;5070874;28;20041;-39
2022/12/15 11:45:10;;;;;;;18.50;4.75;;;;;;;3.93;100.00;100843.31;5058640;28;20036;-37
2022/12/15 11:47:43;;;;;;;17.50;7.40;;;;;;;3.97;100.00;100839.38;5052659;28;20376;-40
2022/12/15 11:50:17;;;;;;;32.30;9.88;;;;;;;4.12;100.00;100838.00;5052168;28;20028;-37
2022/12/15 11:52:59;;;;;;;27.05;9.10;;;;;;;4.22;100.00;100842.50;5066151;28;20460;-39
2022/12/15 11:55:38;;;;;;;33.38;7.32;;;;;;;4.33;100.00;100837.84;5059081;28;20036;-40
2022/12/15 11:58:22;;;;;;;20.63;7.25;;;;;;;4.28;100.00;100831.25;5070859;28;20024;-39
2022/12/15 12:01:02;;;;;;;16.42;5.22;;;;;;;4.13;100.00;100834.38;5064980;28;20021;-38
2022/12/15 12:03:38;;;;;;;17.40;5.30;;;;;;;4.01;100.00;100832.81;5073551;28;20114;-37
2022/12/15 12:06:37;;;;;;;16.05;4.72;;;;;;;3.97;100.00;100834.06;5059617;28;20048;-40
2022/12/15 12:09:27;;;;;;;11.63;4.43;;;;;;;3.92;100.00;100833.63;5056987;28;20040;-40
2022/12/15 12:12:00;;;;;;;17.52;4.25;;;;;;;3.92;100.00;100844.28;5078125;28;20041;-39
2022/12/15 12:14:31;;;;;;;10.35;4.18;;;;;;;3.94;100.00;100839.66;5057313;28;20024;-40
2022/12/15 12:17:13;;;;;;;10.85;4.30;;;;;;;3.93;100.00;100832.66;5057070;28;20053;-39
2022/12/15 12:19:43;;;;;;;11.00;4.60;;;;;;;3.91;100.00;100830.13;5052523;28;20107;-41
2022/12/15 12:22:17;;;;;;;11.30;4.53;;;;;;;3.88;100.00;100824.25;5051415;28;20033;-40
2022/12/15 12:24:44;;;;;;;12.68;5.50;;;;;;;3.77;100.00;100816.41;5068613;28;20056;-37
2022/12/15 12:27:24;;;;;;;12.32;4.95;;;;;;;3.76;100.00;100812.88;5060557;28;20498;-39
2022/12/15 12:30:02;;;;;;;12.95;5.22;;;;;;;3.79;100.00;100809.97;5067293;28;20083;-41
2022/12/15 12:32:41;;;;;;;13.80;4.60;;;;;;;3.79;100.00;100806.44;5054505;28;20025;-40
2022/12/15 12:35:23;;;;;;;17.88;4.15;;;;;;;3.86;100.00;100799.59;5060352;28;20035;-39
2022/12/15 12:38:00;;;;;;;12.60;5.28;;;;;;;3.92;100.00;100799.88;5060229;28;20044;-40
2022/12/15 12:40:57;;;;;;;18.08;4.50;;;;;;;3.93;100.00;100792.72;5058493;28;20127;-40
2022/12/15 12:43:34;;;;;;;12.35;4.63;;;;;;;4.09;100.00;100779.69;5071326;28;20041;-39
2022/12/15 12:46:20;;;;;;;15.13;3.72;;;;;;;4.29;100.00;100776.97;5051600;28;20024;-40
2022/12/15 12:48:52;;;;;;;16.25;3.40;;;;;;;4.44;100.00;100788.88;5055008;28;20043;-39
2022/12/15 12:51:29;;;;;;;11.50;2.70;;;;;;;4.45;100.00;100782.59;5056463;28;20713;-38
2022/12/15 12:53:56;;;;;;;7.32;2.03;;;;;;;4.48;100.00;100773.47;5050196;28;20033;-40
2022/12/15 12:56:37;;;;;;;16.13;2.10;;;;;;;4.60;100.00;100775.78;5050293;28;20036;-39
2022/12/15 12:59:07;;;;;;;10.27;1.67;;;;;;;4.61;100.00;100774.81;5058495;28;20107;-42
2022/12/15 13:01:34;;;;;;;6.70;1.80;;;;;;;4.62;100.00;100763.16;5072125;28;20135;-39
2022/12/15 13:04:10;;;;;;;19.33;1.97;;;;;;;4.62;100.00;100768.50;5047604;28;20021;-39
2022/12/15 13:06:38;;;;;;;12.38;2.22;;;;;;;4.65;100.00;100766.53;5051232;28;20047;-40
2022/12/15 13:09:16;;;;;;;17.08;1.92;;;;;;;4.66;100.00;100765.53;5053882;28;20028;-39
2022/12/15 13:11:47;;;;;;;12.20;2.05;;;;;;;4.73;100.00;100762.13;5071289;28;20538;-40
2022/12/15 13:14:17;;;;;;;14.02;1.77;;;;;;;4.85;100.00;100760.16;5072055;28;20365;-40
2022/12/15 13:16:44;;;;;;;9.50;2.00;;;;;;;4.98;100.00;100770.47;5053875;28;20032;-40
2022/12/15 13:19:10;;;;;;;13.18;1.90;;;;;;;5.15;100.00;100767.00;5070798;28;20020;-40
2022/12/15 13:21:44;;;;;;;16.52;2.08;;;;;;;5.26;100.00;100760.63;5072031;28;20367;-40
2022/12/15 13:24:30;;;;;;;8.45;1.30;;;;;;;5.27;100.00;100759.66;5071713;28;20029;-40
2022/12/15 13:27:10;;;;;;;15.77;1.98;;;;;;;5.14;100.00;100754.66;5071226;28;20052;-40
2022/12/15 13:29:53;;;;;;;6.82;1.45;;;;;;;4.98;98.47;100754.47;5071836;28;20029;-39
2022/12/15 13:32:34;;;;;;;4.65;1.17;;;;;;;4.84;96.71;100737.13;5071866;28;20054;-41
2022/12/15 13:35:12;;;;;;;6.50;1.50;;;;;;;5.20;96.66;100730.06;5071763;28;20479;-41
2022/12/15 13:37:50;;;;;;;6.85;2.28;;;;;;;5.72;95.37;100738.25;5071815;28;20032;-42
2022/12/15 13:40:21;;;;;;;11.40;2.20;;;;;;;6.13;92.26;100735.09;5071149;28;20033;-40
2022/12/15 13:42:58;;;;;;;7.80;2.83;;;;;;;6.70;87.59;100732.81;5071483;28;20021;-40
2022/12/15 13:45:31;;;;;;;13.52;1.48;;;;;;;6.98;82.89;100727.25;5071581;28;20032;-41
2022/12/15 13:47:57;;;;;;;7.97;0.93;;;;;;;7.22;77.99;100727.31;5071636;28;20033;-41
2022/12/15 13:50:44;;;;;;;6.63;0.80;;;;;;;7.33;74.26;100722.66;5069685;28;20078;-42
2022/12/15 13:53:17;;;;;;;4.15;1.23;;;;;;;7.60;68.48;100717.00;5070030;28;20028;-42
2022/12/15 13:56:26;;;;;;;5.65;1.67;;;;;;;7.40;68.21;100723.69;5058212;28;20044;-41